Aérodrome :
LOGIN :

S'inscrire | Disclaimer

   EN    FR    IT 

 










Légende :    VFR   VFR Marginal   IFR   IFR Intensif   IFR Très Intensif
Visi : 
Plafond : 
>= 8 km
>= 3000ft
5 à 8 km
1000 à 3000 ft
1500m à 5 km
500 à 1000 ft
800 à 1500m
200 à 500 ft
< 800m
< 200 ft
Symboles :   Orages  Brouillard  Fortes neiges  Fortes précipitations  Vent > 20 kt
SIGMETs :   Divers  Orages  Givrage  Turbulence  Onde Orograph.  Cendres Volcan.







- Altitude de l'aérodrome : 203 ft
- Code IATA : XMJ
- Voir les cartes d'approche


LFBM - Mont-De-Marsan

DERNIER METAR :
  • 181200Z AUTO 00000KT 9999 OVC005 07/07 Q1025 BECMG NSC

METARs EXPIRÉS :
  • 181130Z AUTO 00000KT 6000 OVC002 06/06 Q1025 BECMG NSC
  • 181100Z AUTO VRB01KT 4800 BR OVC002 05/05 Q1026 BECMG CAVOK
  • 181030Z AUTO VRB02KT 0750 0500 R27/1500U FG VV/// 04/04 Q1026 BECMG CAVOK
  • 181000Z AUTO 00000KT 0400 0350 R27/0550N FG VV/// 03/03 Q1025 BECMG CAVOK
  • 180930Z AUTO VRB02KT 0450 R27/0450D FG VV/// 03/02 Q1025 BECMG CAVOK

TAF TAF LFBM
Valide du 18 à 09h jusqu'au 19 à 09h UTC


180800Z 1809/1909 VRB02KT 0500 FG VV///
BECMG 1810/1811 2000 BR BKN002
BECMG 1811/1813 9999 NSW NSC
Pas de NOTAMs connus pour ce terrain.



MET'MAP, la Météo Aéronautique d'un coup d'oeil ! - Copyright ORBIFLY Décembre 2007 - Disclaimer

ORBIFLY MET'MAP TEAM :

Programmation & Développement : Alexandra Zaïnal
Conception & Développement : Baudouin d'Aumeries
Co-Programmation & Développement : Marc-Olivier Méhu
Soutien technique & logistique : Manuel Goepfert

Contact : metmap@orbifly.com




SOURCES & CREDITS :

   NOAA